createdAt,value
2023-04-30T00:01:42.330Z,10.60
2023-04-30T00:04:10.684Z,11.10
2023-04-30T00:06:37.893Z,13.87
2023-04-30T00:09:04.984Z,13.83
2023-04-30T00:11:32.025Z,11.80
2023-04-30T00:14:00.363Z,12.60
2023-04-30T00:16:27.566Z,11.00
2023-04-30T00:18:55.002Z,10.67
2023-04-30T00:21:22.090Z,10.30
2023-04-30T00:23:49.220Z,10.50
2023-04-30T00:26:16.352Z,10.87
2023-04-30T00:28:47.300Z,10.50
2023-04-30T00:31:15.703Z,9.70
2023-04-30T00:33:42.729Z,9.80
2023-04-30T00:36:10.362Z,9.10
2023-04-30T00:38:37.426Z,10.10
2023-04-30T00:41:04.718Z,11.70
2023-04-30T00:43:31.984Z,11.03
2023-04-30T00:45:59.075Z,9.60
2023-04-30T00:48:27.713Z,12.07
2023-04-30T00:50:54.969Z,11.90
2023-04-30T00:53:22.093Z,9.80
2023-04-30T00:55:49.242Z,10.90
2023-04-30T00:58:16.377Z,9.57
2023-04-30T01:00:43.490Z,9.90
2023-04-30T01:03:10.883Z,10.00
2023-04-30T01:05:39.538Z,10.87
2023-04-30T01:08:06.714Z,10.03
2023-04-30T01:10:38.677Z,11.73
2023-04-30T01:13:08.875Z,11.10
2023-04-30T01:15:39.066Z,11.00
2023-04-30T01:18:07.998Z,12.07
2023-04-30T01:20:36.304Z,11.50
2023-04-30T01:23:11.961Z,11.00
2023-04-30T01:25:53.999Z,9.63
2023-04-30T01:28:23.313Z,9.73
2023-04-30T01:30:50.635Z,10.00
2023-04-30T01:33:17.921Z,10.60
2023-04-30T01:35:54.782Z,12.40
2023-04-30T01:38:27.764Z,10.83
2023-04-30T01:40:58.568Z,11.10
2023-04-30T01:43:32.640Z,11.00
2023-04-30T01:46:04.576Z,12.67
2023-04-30T01:48:37.557Z,12.20
2023-04-30T01:51:08.949Z,11.73
2023-04-30T01:53:40.807Z,11.37
2023-04-30T01:56:10.753Z,11.17
2023-04-30T01:58:40.939Z,10.93
2023-04-30T02:01:08.069Z,10.47
2023-04-30T02:03:35.266Z,10.73
2023-04-30T02:06:02.550Z,12.10
2023-04-30T02:08:29.606Z,13.03
2023-04-30T02:10:56.661Z,11.60
2023-04-30T02:13:23.793Z,13.40
2023-04-30T02:15:52.204Z,13.10
2023-04-30T02:18:19.414Z,11.80
2023-04-30T02:20:46.584Z,13.70
2023-04-30T02:23:13.652Z,11.97
2023-04-30T02:25:40.719Z,12.60
2023-04-30T02:28:07.866Z,11.37
2023-04-30T02:30:35.434Z,11.77
2023-04-30T02:33:03.870Z,13.10
2023-04-30T02:35:30.972Z,12.70
2023-04-30T02:37:58.684Z,13.63
2023-04-30T02:40:25.818Z,13.40
2023-04-30T02:42:52.929Z,13.90
2023-04-30T02:45:20.010Z,12.07
2023-04-30T02:47:47.124Z,11.53
2023-04-30T02:50:15.678Z,13.33
2023-04-30T02:52:42.753Z,14.07
2023-04-30T02:55:10.002Z,14.40
2023-04-30T02:57:37.045Z,13.87
2023-04-30T03:00:04.494Z,13.90
2023-04-30T03:02:32.011Z,12.77
2023-04-30T03:04:59.158Z,14.07
2023-04-30T03:07:27.522Z,15.03
2023-04-30T03:09:54.852Z,14.70
2023-04-30T03:12:22.178Z,14.77
2023-04-30T03:14:49.327Z,14.30
2023-04-30T03:17:16.400Z,14.10
2023-04-30T03:19:43.563Z,14.63
2023-04-30T03:22:11.081Z,13.30
2023-04-30T03:24:39.558Z,13.97
2023-04-30T03:27:06.651Z,14.00
2023-04-30T03:29:34.181Z,13.73
2023-04-30T03:32:01.458Z,14.40
2023-04-30T03:34:28.777Z,14.37
2023-04-30T03:36:55.831Z,13.73
2023-04-30T03:39:22.895Z,14.77
2023-04-30T03:41:51.331Z,14.77
2023-04-30T03:44:18.368Z,14.17
2023-04-30T03:46:45.542Z,14.47
2023-04-30T03:49:12.828Z,14.20
2023-04-30T03:51:39.957Z,15.23
2023-04-30T03:54:07.131Z,16.73
2023-04-30T03:56:34.247Z,14.67
2023-04-30T03:59:02.730Z,17.20
2023-04-30T04:01:30.958Z,14.70
2023-04-30T04:03:58.200Z,16.50
2023-04-30T04:06:25.437Z,16.00
2023-04-30T04:08:52.652Z,15.77
2023-04-30T04:11:19.783Z,16.10
2023-04-30T04:13:46.933Z,16.63
2023-04-30T04:16:15.681Z,16.87
2023-04-30T04:18:42.843Z,16.13
2023-04-30T04:21:09.954Z,15.90
2023-04-30T04:23:37.093Z,17.33
2023-04-30T04:26:04.141Z,16.80
2023-04-30T04:28:31.281Z,17.93
2023-04-30T04:30:58.354Z,15.73
2023-04-30T04:33:26.772Z,15.43
2023-04-30T04:35:54.088Z,17.73
2023-04-30T04:38:21.235Z,16.07
2023-04-30T04:40:51.964Z,16.40
2023-04-30T04:43:19.337Z,15.77
2023-04-30T04:45:46.774Z,17.47
2023-04-30T04:48:13.997Z,16.20
2023-04-30T04:50:42.504Z,16.97
2023-04-30T04:53:09.658Z,17.93
2023-04-30T04:55:36.771Z,16.77
2023-04-30T04:58:03.862Z,16.67
2023-04-30T05:00:30.940Z,17.03
2023-04-30T05:02:58.177Z,16.50
2023-04-30T05:05:25.776Z,15.40
2023-04-30T05:07:54.165Z,18.20
2023-04-30T05:10:21.370Z,16.77
2023-04-30T05:12:48.530Z,16.50
2023-04-30T05:15:15.765Z,16.20
2023-04-30T05:17:42.889Z,14.60
2023-04-30T05:20:10.553Z,15.97
2023-04-30T05:22:37.667Z,15.73
2023-04-30T05:25:06.694Z,18.83
2023-04-30T05:27:33.848Z,18.37
2023-04-30T05:30:00.965Z,17.10
2023-04-30T05:32:28.151Z,18.93
2023-04-30T05:34:55.222Z,17.03
2023-04-30T05:37:22.275Z,15.70
2023-04-30T05:39:49.397Z,16.30
2023-04-30T05:42:17.846Z,17.10
2023-04-30T05:44:44.875Z,16.30
2023-04-30T05:47:11.914Z,16.17
2023-04-30T05:49:38.949Z,15.87
2023-04-30T05:52:06.165Z,16.63
2023-04-30T05:54:33.291Z,15.00
2023-04-30T05:57:00.455Z,15.33
2023-04-30T05:59:28.842Z,14.83
2023-04-30T06:01:56.012Z,14.40
2023-04-30T06:04:23.104Z,15.60
2023-04-30T06:06:50.253Z,13.63
2023-04-30T06:09:17.400Z,13.77
2023-04-30T06:11:44.473Z,14.87
2023-04-30T06:14:11.671Z,15.20
2023-04-30T06:16:40.168Z,14.97
2023-04-30T06:19:07.231Z,14.07
2023-04-30T06:21:34.279Z,14.90
2023-04-30T06:24:01.325Z,13.00
2023-04-30T06:26:28.471Z,13.50
2023-04-30T06:28:55.551Z,13.27
2023-04-30T06:31:22.716Z,13.47
2023-04-30T06:33:51.088Z,13.60
2023-04-30T06:36:18.121Z,11.57
2023-04-30T06:38:45.271Z,13.33
2023-04-30T06:41:12.354Z,13.30
2023-04-30T06:43:39.458Z,12.77
2023-04-30T06:46:06.583Z,11.40
2023-04-30T06:48:33.792Z,10.30
2023-04-30T06:51:02.176Z,12.90
2023-04-30T06:53:29.301Z,11.00
2023-04-30T06:55:56.365Z,11.60
2023-04-30T06:58:23.446Z,10.70
2023-04-30T07:00:50.662Z,10.27
2023-04-30T07:03:17.841Z,11.07
2023-04-30T07:05:45.112Z,11.43
2023-04-30T07:08:13.467Z,11.40
2023-04-30T07:10:40.532Z,12.33
2023-04-30T07:13:07.607Z,9.73
2023-04-30T07:15:34.755Z,10.60
2023-04-30T07:18:01.819Z,9.20
2023-04-30T07:20:28.926Z,9.63
2023-04-30T07:22:55.969Z,11.07
2023-04-30T07:25:24.406Z,9.10
2023-04-30T07:27:52.119Z,9.20
2023-04-30T07:30:19.188Z,10.40
2023-04-30T07:32:46.251Z,10.40
2023-04-30T07:35:13.326Z,9.13
2023-04-30T07:37:41.275Z,8.47
2023-04-30T07:40:09.088Z,8.10
2023-04-30T07:42:37.518Z,8.53
2023-04-30T07:45:04.971Z,9.23
2023-04-30T07:47:32.041Z,8.43
2023-04-30T07:49:59.266Z,7.80
2023-04-30T07:52:26.482Z,8.70
2023-04-30T07:54:53.477Z,8.60
2023-04-30T07:57:20.547Z,7.97
2023-04-30T07:59:51.348Z,8.00
2023-04-30T08:02:19.483Z,7.57
2023-04-30T08:04:46.549Z,7.20
2023-04-30T08:07:13.574Z,8.20
2023-04-30T08:09:40.667Z,7.27
2023-04-30T08:12:07.796Z,7.07
2023-04-30T08:14:35.084Z,6.07
2023-04-30T08:17:03.615Z,6.00
2023-04-30T08:19:30.739Z,6.47
2023-04-30T08:21:57.830Z,6.63
2023-04-30T08:24:24.946Z,7.27
2023-04-30T08:26:53.455Z,5.67
2023-04-30T08:29:21.854Z,5.63
2023-04-30T08:31:48.900Z,5.27
2023-04-30T08:34:17.478Z,3.67
2023-04-30T08:36:44.547Z,3.73
2023-04-30T08:39:11.622Z,3.73
2023-04-30T08:41:40.007Z,3.40
2023-04-30T08:44:08.536Z,4.07
2023-04-30T08:46:36.540Z,3.37
2023-04-30T08:49:03.792Z,3.80
2023-04-30T08:51:33.359Z,3.67
2023-04-30T08:54:00.533Z,3.27
2023-04-30T08:56:27.619Z,2.90
2023-04-30T08:58:54.646Z,2.87
2023-04-30T09:01:21.762Z,2.73
2023-04-30T09:03:49.013Z,2.73
2023-04-30T09:06:16.701Z,2.13
2023-04-30T09:08:46.268Z,2.50
2023-04-30T09:11:23.496Z,2.10
2023-04-30T09:13:50.990Z,2.27
2023-04-30T09:16:18.028Z,1.70
2023-04-30T09:18:45.113Z,2.17
2023-04-30T09:21:12.228Z,2.10
2023-04-30T09:23:54.315Z,1.90
2023-04-30T09:26:27.417Z,1.87
2023-04-30T09:28:55.354Z,1.90
2023-04-30T09:31:22.498Z,2.53
2023-04-30T09:33:49.609Z,2.43
2023-04-30T09:36:16.793Z,1.90
2023-04-30T09:38:44.111Z,2.70
2023-04-30T09:41:22.141Z,2.27
2023-04-30T09:43:50.640Z,2.40
2023-04-30T09:46:19.452Z,2.13
2023-04-30T09:48:46.591Z,2.17
2023-04-30T09:51:13.605Z,2.40
2023-04-30T09:53:42.926Z,2.40
2023-04-30T09:56:12.314Z,3.00
2023-04-30T09:58:39.425Z,2.50
2023-04-30T10:01:10.788Z,2.37
2023-04-30T10:03:39.786Z,2.20
2023-04-30T10:06:07.643Z,2.50
2023-04-30T10:08:38.329Z,3.10
2023-04-30T10:11:06.343Z,2.33
2023-04-30T10:13:35.645Z,2.23
2023-04-30T10:16:07.445Z,2.63
2023-04-30T10:18:37.845Z,2.60
2023-04-30T10:21:07.224Z,2.03
2023-04-30T10:23:34.525Z,2.63
2023-04-30T10:26:01.661Z,2.42
2023-04-30T10:28:29.430Z,2.67
2023-04-30T10:30:56.561Z,2.50
2023-04-30T10:33:26.607Z,2.40
2023-04-30T10:35:58.086Z,2.00
2023-04-30T10:38:26.873Z,1.50
2023-04-30T10:40:56.085Z,1.63
2023-04-30T10:43:24.497Z,1.77
2023-04-30T10:45:51.608Z,2.20
2023-04-30T10:48:18.755Z,1.90
2023-04-30T10:50:46.411Z,1.40
2023-04-30T10:53:17.911Z,2.00
2023-04-30T10:55:48.349Z,1.42
2023-04-30T10:58:24.104Z,1.77
2023-04-30T11:00:52.056Z,1.38
2023-04-30T11:03:19.167Z,1.50
2023-04-30T11:05:46.354Z,1.10
2023-04-30T11:08:14.937Z,1.45
2023-04-30T11:10:57.284Z,1.58
2023-04-30T11:13:24.638Z,1.67
2023-04-30T11:15:51.679Z,1.23
2023-04-30T11:18:19.343Z,1.40
2023-04-30T11:20:50.084Z,1.42
2023-04-30T11:23:32.173Z,1.40
2023-04-30T11:26:07.840Z,1.38
2023-04-30T11:28:35.002Z,1.25
2023-04-30T11:31:02.244Z,1.48
2023-04-30T11:33:30.482Z,1.60
2023-04-30T11:35:58.335Z,1.50
2023-04-30T11:38:28.306Z,1.30
2023-04-30T11:40:55.519Z,1.42
2023-04-30T11:43:23.320Z,1.20
2023-04-30T11:46:04.479Z,1.33
2023-04-30T11:48:31.979Z,1.30
2023-04-30T11:50:59.083Z,1.70
2023-04-30T11:53:28.989Z,1.58
2023-04-30T11:55:56.059Z,1.48
2023-04-30T11:58:23.166Z,1.38
2023-04-30T12:00:51.077Z,1.38
2023-04-30T12:03:18.216Z,1.40
2023-04-30T12:05:46.678Z,1.13
2023-04-30T12:08:13.716Z,1.35
2023-04-30T12:10:42.280Z,1.30
2023-04-30T12:13:14.033Z,1.17
2023-04-30T12:15:41.298Z,1.50
2023-04-30T12:18:12.604Z,1.30
2023-04-30T12:20:40.145Z,1.80
2023-04-30T12:23:07.316Z,1.60
2023-04-30T12:25:42.178Z,2.08
2023-04-30T12:28:10.581Z,1.63
2023-04-30T12:30:37.869Z,1.60
2023-04-30T12:33:04.932Z,1.90
2023-04-30T12:35:32.525Z,1.23
2023-04-30T12:38:03.593Z,1.23
2023-04-30T12:40:30.691Z,1.67
2023-04-30T12:43:02.189Z,1.17
2023-04-30T12:45:45.408Z,1.30
2023-04-30T12:48:12.730Z,1.40
2023-04-30T12:50:40.000Z,1.00
2023-04-30T12:53:07.073Z,1.42
2023-04-30T12:55:34.331Z,1.30
2023-04-30T12:58:06.898Z,1.40
2023-04-30T13:00:46.978Z,1.85
2023-04-30T13:03:14.240Z,1.42
2023-04-30T13:05:41.529Z,1.30
2023-04-30T13:08:08.697Z,1.33
2023-04-30T13:10:35.714Z,1.25
2023-04-30T13:13:02.762Z,1.30
2023-04-30T13:15:31.267Z,1.30
2023-04-30T13:17:58.413Z,1.50
2023-04-30T13:20:25.467Z,1.10
2023-04-30T13:22:52.705Z,1.30
2023-04-30T13:25:20.312Z,1.42
2023-04-30T13:27:47.376Z,1.35
2023-04-30T13:30:14.447Z,1.52
2023-04-30T13:32:42.929Z,1.42
2023-04-30T13:35:10.621Z,1.20
2023-04-30T13:37:37.760Z,1.40
2023-04-30T13:40:05.352Z,1.38
2023-04-30T13:42:32.618Z,1.30
2023-04-30T13:44:59.653Z,1.25
2023-04-30T13:47:26.769Z,1.67
2023-04-30T13:49:55.488Z,4.47
2023-04-30T13:52:22.839Z,1.73
2023-04-30T13:54:49.876Z,2.47
2023-04-30T13:57:16.901Z,1.27
2023-04-30T13:59:43.960Z,2.17
2023-04-30T14:02:11.247Z,1.55
2023-04-30T14:04:38.338Z,2.08
2023-04-30T14:07:06.956Z,1.23
2023-04-30T14:09:34.072Z,1.00
2023-04-30T14:12:01.166Z,3.17
2023-04-30T14:14:28.210Z,1.70
2023-04-30T14:16:55.884Z,1.25
2023-04-30T14:19:23.097Z,1.38
2023-04-30T14:21:50.203Z,1.40
2023-04-30T14:24:18.622Z,1.20
2023-04-30T14:26:45.760Z,1.60
2023-04-30T14:29:12.812Z,2.40
2023-04-30T14:31:39.913Z,2.00
2023-04-30T14:34:07.035Z,1.00
2023-04-30T14:36:34.724Z,1.30
2023-04-30T14:39:02.157Z,1.33
2023-04-30T14:41:30.605Z,1.70
2023-04-30T14:43:57.667Z,2.38
2023-04-30T14:46:24.787Z,1.92
2023-04-30T14:48:51.884Z,1.58
2023-04-30T14:51:19.015Z,1.98
2023-04-30T14:53:46.058Z,1.42
2023-04-30T14:56:13.099Z,1.30
2023-04-30T14:58:41.456Z,1.17
2023-04-30T15:01:08.608Z,1.45
2023-04-30T15:03:35.884Z,1.10
2023-04-30T15:06:03.212Z,1.30
2023-04-30T15:08:30.326Z,2.97
2023-04-30T15:10:57.365Z,1.33
2023-04-30T15:13:24.476Z,1.33
2023-04-30T15:15:52.917Z,1.13
2023-04-30T15:18:20.055Z,1.30
2023-04-30T15:20:47.149Z,1.30
2023-04-30T15:23:14.269Z,1.48
2023-04-30T15:25:41.344Z,1.08
2023-04-30T15:28:08.524Z,3.53
2023-04-30T15:30:35.606Z,1.40
2023-04-30T15:33:04.068Z,1.60
2023-04-30T15:35:31.260Z,1.75
2023-04-30T15:37:58.392Z,2.72
2023-04-30T15:40:25.473Z,1.40
2023-04-30T15:42:52.505Z,1.10
2023-04-30T15:45:19.555Z,1.20
2023-04-30T15:47:46.791Z,1.67
2023-04-30T15:50:15.199Z,1.63
2023-04-30T15:52:42.250Z,0.98
2023-04-30T15:55:10.010Z,1.15
2023-04-30T15:57:37.189Z,1.10
2023-04-30T16:00:04.578Z,1.40
2023-04-30T16:02:39.024Z,1.58
2023-04-30T16:05:06.319Z,1.10
2023-04-30T16:07:34.970Z,1.13
2023-04-30T16:10:02.481Z,1.05
2023-04-30T16:12:29.590Z,1.23
2023-04-30T16:14:56.662Z,1.20
2023-04-30T16:17:23.800Z,1.58
2023-04-30T16:19:50.954Z,1.33
2023-04-30T16:22:18.081Z,1.15
2023-04-30T16:24:46.500Z,1.35
2023-04-30T16:27:13.527Z,1.00
2023-04-30T16:29:40.611Z,1.15
2023-04-30T16:32:07.812Z,1.25
2023-04-30T16:34:34.908Z,1.00
2023-04-30T16:37:01.986Z,1.30
2023-04-30T16:39:29.055Z,1.27
2023-04-30T16:41:57.407Z,1.83
2023-04-30T16:44:24.463Z,1.52
2023-04-30T16:46:51.494Z,1.10
2023-04-30T16:49:18.560Z,1.05
2023-04-30T16:51:45.637Z,1.33
2023-04-30T16:54:12.685Z,1.20
2023-04-30T16:56:39.785Z,1.13
2023-04-30T16:59:08.255Z,1.30
2023-04-30T17:01:35.364Z,1.33
2023-04-30T17:04:02.551Z,1.35
2023-04-30T17:06:29.633Z,1.10
2023-04-30T17:08:56.771Z,1.20
2023-04-30T17:11:23.843Z,1.33
2023-04-30T17:13:52.031Z,1.40
2023-04-30T17:16:20.454Z,1.20
2023-04-30T17:18:47.523Z,1.43
2023-04-30T17:21:14.581Z,1.40
2023-04-30T17:23:41.710Z,1.43
2023-04-30T17:26:08.805Z,1.63
2023-04-30T17:28:35.840Z,1.50
2023-04-30T17:31:02.990Z,1.33
2023-04-30T17:33:31.373Z,1.47
2023-04-30T17:35:58.440Z,1.60
2023-04-30T17:38:25.499Z,1.13
2023-04-30T17:40:52.542Z,1.30
2023-04-30T17:43:19.621Z,1.17
2023-04-30T17:45:46.722Z,1.93
2023-04-30T17:48:13.862Z,1.23
2023-04-30T17:50:42.438Z,1.60
2023-04-30T17:53:09.557Z,1.50
2023-04-30T17:55:36.610Z,1.10
2023-04-30T17:58:03.634Z,1.40
2023-04-30T18:00:30.806Z,1.30
2023-04-30T18:02:57.897Z,1.60
2023-04-30T18:05:25.044Z,1.43
2023-04-30T18:07:53.403Z,1.37
2023-04-30T18:10:20.404Z,1.50
2023-04-30T18:12:47.477Z,1.20
2023-04-30T18:15:14.552Z,1.50
2023-04-30T18:17:41.832Z,1.30
2023-04-30T18:20:09.390Z,1.43
2023-04-30T18:22:37.722Z,1.40
2023-04-30T18:25:07.056Z,1.27
2023-04-30T18:27:34.165Z,1.87
2023-04-30T18:30:01.281Z,1.90
2023-04-30T18:32:28.359Z,1.83
2023-04-30T18:34:55.410Z,1.87
2023-04-30T18:37:22.469Z,1.73
2023-04-30T18:39:49.498Z,1.40
2023-04-30T18:42:17.873Z,1.40
2023-04-30T18:44:44.917Z,1.57
2023-04-30T18:47:11.985Z,2.20
2023-04-30T18:49:39.048Z,1.83
2023-04-30T18:52:06.141Z,1.70
2023-04-30T18:54:33.170Z,1.50
2023-04-30T18:57:00.248Z,1.40
2023-04-30T18:59:28.780Z,1.70
2023-04-30T19:01:55.982Z,1.70
2023-04-30T19:04:23.149Z,2.00
2023-04-30T19:06:50.352Z,1.90
2023-04-30T19:09:17.536Z,1.90
2023-04-30T19:11:44.557Z,1.70
2023-04-30T19:14:11.609Z,1.50
2023-04-30T19:16:40.039Z,1.20
2023-04-30T19:19:07.172Z,1.57
2023-04-30T19:21:34.267Z,1.63
2023-04-30T19:24:01.313Z,1.73
2023-04-30T19:26:28.390Z,1.60
2023-04-30T19:28:55.549Z,1.80
2023-04-30T19:31:22.672Z,2.40
2023-04-30T19:33:51.168Z,2.47
2023-04-30T19:36:18.194Z,1.70
2023-04-30T19:38:45.311Z,1.50
2023-04-30T19:41:12.392Z,3.20
2023-04-30T19:43:39.435Z,4.20
2023-04-30T19:46:06.561Z,3.00
2023-04-30T19:48:33.574Z,3.30
2023-04-30T19:51:03.206Z,2.70
2023-04-30T19:53:30.267Z,3.90
2023-04-30T19:55:57.331Z,2.57
2023-04-30T19:58:24.419Z,1.70
2023-04-30T20:00:51.502Z,1.80
2023-04-30T20:03:18.582Z,1.77
2023-04-30T20:05:45.718Z,2.07
2023-04-30T20:08:14.195Z,2.13
2023-04-30T20:10:41.239Z,2.07
2023-04-30T20:13:08.923Z,1.80
2023-04-30T20:15:36.013Z,1.70
2023-04-30T20:18:03.241Z,2.23
2023-04-30T20:20:30.417Z,1.73
2023-04-30T20:22:57.720Z,1.60
2023-04-30T20:25:26.347Z,2.10
2023-04-30T20:27:53.418Z,2.00
2023-04-30T20:30:20.611Z,2.47
2023-04-30T20:32:47.814Z,1.93
2023-04-30T20:35:14.964Z,3.07
2023-04-30T20:37:42.068Z,2.93
2023-04-30T20:40:09.791Z,2.43
2023-04-30T20:42:38.185Z,2.60
2023-04-30T20:45:05.899Z,2.30
2023-04-30T20:47:33.055Z,2.33
2023-04-30T20:50:00.165Z,1.87
2023-04-30T20:52:27.284Z,2.10
2023-04-30T20:54:54.391Z,1.80
2023-04-30T20:57:21.445Z,1.77
2023-04-30T20:59:49.824Z,2.30
2023-04-30T21:02:16.907Z,2.00
2023-04-30T21:04:44.111Z,1.73
2023-04-30T21:07:11.169Z,2.70
2023-04-30T21:09:38.199Z,3.30
2023-04-30T21:12:05.396Z,2.40
2023-04-30T21:14:32.690Z,1.90
2023-04-30T21:17:01.164Z,2.03
2023-04-30T21:19:28.413Z,2.10
2023-04-30T21:21:55.428Z,2.27
2023-04-30T21:24:22.473Z,2.10
2023-04-30T21:26:49.605Z,1.70
2023-04-30T21:29:16.698Z,2.57
2023-04-30T21:31:43.753Z,2.57
2023-04-30T21:34:12.158Z,2.43
2023-04-30T21:36:39.389Z,2.47
2023-04-30T21:39:06.461Z,2.43
2023-04-30T21:41:33.519Z,2.20
2023-04-30T21:44:00.529Z,1.80
2023-04-30T21:46:27.737Z,1.90
2023-04-30T21:48:54.813Z,2.87
2023-04-30T21:51:23.215Z,2.97
2023-04-30T21:53:50.254Z,2.50
2023-04-30T21:56:17.816Z,3.30
2023-04-30T21:58:46.200Z,3.20
2023-04-30T22:01:13.398Z,4.03
2023-04-30T22:03:41.884Z,3.10
2023-04-30T22:06:09.070Z,2.53
2023-04-30T22:08:37.460Z,2.50
2023-04-30T22:11:04.519Z,2.53
2023-04-30T22:13:31.664Z,2.27
2023-04-30T22:15:58.846Z,3.27
2023-04-30T22:18:26.031Z,3.00
2023-04-30T22:20:53.247Z,2.30
2023-04-30T22:23:20.571Z,2.60
2023-04-30T22:25:49.012Z,2.30
2023-04-30T22:28:16.173Z,2.43
2023-04-30T22:30:43.220Z,2.60
2023-04-30T22:33:10.335Z,2.73
2023-04-30T22:35:37.572Z,2.40
2023-04-30T22:38:04.632Z,3.00
2023-04-30T22:40:32.061Z,2.07
2023-04-30T22:43:00.859Z,2.97
2023-04-30T22:45:28.217Z,2.63
2023-04-30T22:47:55.395Z,2.60
2023-04-30T22:50:22.513Z,2.30
2023-04-30T22:52:49.760Z,2.77
2023-04-30T22:55:16.899Z,2.40
2023-04-30T22:57:43.964Z,2.70
2023-04-30T23:00:13.249Z,2.20
2023-04-30T23:02:40.350Z,2.20
2023-04-30T23:05:07.802Z,2.40
2023-04-30T23:07:34.915Z,2.93
2023-04-30T23:10:01.961Z,2.63
2023-04-30T23:12:29.009Z,3.00
2023-04-30T23:14:56.172Z,2.50
2023-04-30T23:17:24.636Z,2.57
2023-04-30T23:19:51.677Z,2.63
2023-04-30T23:22:18.726Z,2.80
2023-04-30T23:24:45.750Z,2.57
2023-04-30T23:27:12.864Z,2.70
2023-04-30T23:29:39.945Z,2.70
2023-04-30T23:32:07.060Z,2.40
2023-04-30T23:34:35.476Z,2.43
2023-04-30T23:37:02.572Z,2.83
2023-04-30T23:39:29.621Z,2.57
2023-04-30T23:41:57.118Z,2.80
2023-04-30T23:44:24.255Z,3.03
2023-04-30T23:46:51.474Z,2.40
2023-04-30T23:49:18.655Z,2.90
2023-04-30T23:51:47.061Z,2.50
2023-04-30T23:54:14.110Z,2.90
2023-04-30T23:56:41.182Z,2.87
2023-04-30T23:59:08.271Z,2.60
